sensor_id;sensor_type;location;lat;lon;timestamp;temperature;humidity
26035;DHT22;13809;48.632;11.576;2023-02-22T00:03:13;9.30;33.50
26035;DHT22;13809;48.632;11.576;2023-02-22T00:08:17;9.30;33.30
26035;DHT22;13809;48.632;11.576;2023-02-22T00:13:21;9.30;33.20
26035;DHT22;13809;48.632;11.576;2023-02-22T00:18:25;9.20;33.30
26035;DHT22;13809;48.632;11.576;2023-02-22T00:23:30;9.20;33.40
26035;DHT22;13809;48.632;11.576;2023-02-22T00:28:35;9.10;33.40
26035;DHT22;13809;48.632;11.576;2023-02-22T00:33:38;9.10;33.50
26035;DHT22;13809;48.632;11.576;2023-02-22T00:38:42;9.00;33.40
26035;DHT22;13809;48.632;11.576;2023-02-22T00:43:46;9.00;33.50
26035;DHT22;13809;48.632;11.576;2023-02-22T00:48:50;8.90;33.80
26035;DHT22;13809;48.632;11.576;2023-02-22T00:53:53;8.90;33.60
26035;DHT22;13809;48.632;11.576;2023-02-22T00:58:58;8.90;33.70
26035;DHT22;13809;48.632;11.576;2023-02-22T01:04:01;8.90;33.90
26035;DHT22;13809;48.632;11.576;2023-02-22T01:09:04;8.80;33.40
26035;DHT22;13809;48.632;11.576;2023-02-22T01:14:09;8.70;33.40
26035;DHT22;13809;48.632;11.576;2023-02-22T01:19:13;8.60;33.70
26035;DHT22;13809;48.632;11.576;2023-02-22T01:24:17;8.40;33.50
26035;DHT22;13809;48.632;11.576;2023-02-22T01:29:22;8.20;34.50
26035;DHT22;13809;48.632;11.576;2023-02-22T01:34:25;8.20;34.20
26035;DHT22;13809;48.632;11.576;2023-02-22T01:39:28;8.20;34.10
26035;DHT22;13809;48.632;11.576;2023-02-22T01:44:35;8.10;34.00
26035;DHT22;13809;48.632;11.576;2023-02-22T01:49:40;8.20;34.50
26035;DHT22;13809;48.632;11.576;2023-02-22T01:54:48;8.10;34.40
26035;DHT22;13809;48.632;11.576;2023-02-22T01:59:58;8.10;34.30
26035;DHT22;13809;48.632;11.576;2023-02-22T02:05:02;8.10;34.40
26035;DHT22;13809;48.632;11.576;2023-02-22T02:10:10;8.10;34.00
26035;DHT22;13809;48.632;11.576;2023-02-22T02:15:23;8.10;34.00
26035;DHT22;13809;48.632;11.576;2023-02-22T02:20:34;8.00;34.60
26035;DHT22;13809;48.632;11.576;2023-02-22T02:32:10;8.00;34.80
26035;DHT22;13809;48.632;11.576;2023-02-22T02:37:21;8.00;34.90
26035;DHT22;13809;48.632;11.576;2023-02-22T02:42:35;7.90;34.30
26035;DHT22;13809;48.632;11.576;2023-02-22T02:47:45;7.70;34.10
26035;DHT22;13809;48.632;11.576;2023-02-22T02:52:51;7.60;34.60
26035;DHT22;13809;48.632;11.576;2023-02-22T02:57:56;7.50;34.40
26035;DHT22;13809;48.632;11.576;2023-02-22T03:03:12;7.50;34.40
26035;DHT22;13809;48.632;11.576;2023-02-22T03:08:23;7.50;35.20
26035;DHT22;13809;48.632;11.576;2023-02-22T03:13:34;7.50;34.80
26035;DHT22;13809;48.632;11.576;2023-02-22T03:18:48;7.50;34.90
26035;DHT22;13809;48.632;11.576;2023-02-22T03:24:00;7.50;34.80
26035;DHT22;13809;48.632;11.576;2023-02-22T03:29:08;7.50;35.10
26035;DHT22;13809;48.632;11.576;2023-02-22T03:34:16;7.40;34.70
26035;DHT22;13809;48.632;11.576;2023-02-22T03:39:22;7.40;34.80
26035;DHT22;13809;48.632;11.576;2023-02-22T03:44:32;7.50;34.80
26035;DHT22;13809;48.632;11.576;2023-02-22T03:49:44;7.50;34.60
26035;DHT22;13809;48.632;11.576;2023-02-22T03:54:49;7.50;35.00
26035;DHT22;13809;48.632;11.576;2023-02-22T03:59:54;7.50;34.60
26035;DHT22;13809;48.632;11.576;2023-02-22T04:04:59;7.50;34.60
26035;DHT22;13809;48.632;11.576;2023-02-22T04:10:02;7.50;34.80
26035;DHT22;13809;48.632;11.576;2023-02-22T04:15:12;7.50;34.60
26035;DHT22;13809;48.632;11.576;2023-02-22T04:20:18;7.40;34.70
26035;DHT22;13809;48.632;11.576;2023-02-22T04:25:26;7.40;34.60
26035;DHT22;13809;48.632;11.576;2023-02-22T04:30:29;7.40;34.40
26035;DHT22;13809;48.632;11.576;2023-02-22T04:35:33;7.30;34.30
26035;DHT22;13809;48.632;11.576;2023-02-22T04:40:37;7.30;34.60
26035;DHT22;13809;48.632;11.576;2023-02-22T04:45:40;7.20;34.40
26035;DHT22;13809;48.632;11.576;2023-02-22T04:50:45;7.10;34.50
26035;DHT22;13809;48.632;11.576;2023-02-22T04:55:48;7.10;34.70
26035;DHT22;13809;48.632;11.576;2023-02-22T05:00:51;7.00;34.40
26035;DHT22;13809;48.632;11.576;2023-02-22T05:05:56;7.00;34.60
26035;DHT22;13809;48.632;11.576;2023-02-22T05:10:59;6.90;34.90
26035;DHT22;13809;48.632;11.576;2023-02-22T05:16:03;6.90;34.90
26035;DHT22;13809;48.632;11.576;2023-02-22T05:21:07;6.80;35.00
26035;DHT22;13809;48.632;11.576;2023-02-22T05:26:11;6.80;35.30
26035;DHT22;13809;48.632;11.576;2023-02-22T05:31:14;6.90;35.10
26035;DHT22;13809;48.632;11.576;2023-02-22T05:36:20;6.90;35.10
26035;DHT22;13809;48.632;11.576;2023-02-22T05:41:23;6.90;35.20
26035;DHT22;13809;48.632;11.576;2023-02-22T05:46:26;6.90;35.00
26035;DHT22;13809;48.632;11.576;2023-02-22T05:51:30;6.90;34.90
26035;DHT22;13809;48.632;11.576;2023-02-22T05:56:34;6.90;35.10
26035;DHT22;13809;48.632;11.576;2023-02-22T06:01:37;6.90;34.90
26035;DHT22;13809;48.632;11.576;2023-02-22T06:06:42;6.90;34.90
26035;DHT22;13809;48.632;11.576;2023-02-22T06:11:45;6.80;35.10
26035;DHT22;13809;48.632;11.576;2023-02-22T06:16:51;6.80;34.90
26035;DHT22;13809;48.632;11.576;2023-02-22T06:21:57;6.80;35.30
26035;DHT22;13809;48.632;11.576;2023-02-22T06:27:01;6.80;35.30
26035;DHT22;13809;48.632;11.576;2023-02-22T06:32:04;6.80;35.20
26035;DHT22;13809;48.632;11.576;2023-02-22T06:37:09;6.80;35.10
26035;DHT22;13809;48.632;11.576;2023-02-22T06:42:13;6.80;35.20
26035;DHT22;13809;48.632;11.576;2023-02-22T06:47:18;6.80;35.10
26035;DHT22;13809;48.632;11.576;2023-02-22T06:52:23;6.80;35.30
26035;DHT22;13809;48.632;11.576;2023-02-22T06:57:26;6.80;35.40
26035;DHT22;13809;48.632;11.576;2023-02-22T07:02:29;6.80;35.20
26035;DHT22;13809;48.632;11.576;2023-02-22T07:07:33;6.80;35.40
26035;DHT22;13809;48.632;11.576;2023-02-22T07:12:36;6.80;35.70
26035;DHT22;13809;48.632;11.576;2023-02-22T07:17:40;6.80;35.50
26035;DHT22;13809;48.632;11.576;2023-02-22T07:22:44;6.80;35.70
26035;DHT22;13809;48.632;11.576;2023-02-22T07:27:47;6.80;36.00
26035;DHT22;13809;48.632;11.576;2023-02-22T07:32:51;6.80;35.90
26035;DHT22;13809;48.632;11.576;2023-02-22T07:37:57;6.90;36.10
26035;DHT22;13809;48.632;11.576;2023-02-22T07:43:01;6.90;36.50
26035;DHT22;13809;48.632;11.576;2023-02-22T07:48:08;6.90;36.50
26035;DHT22;13809;48.632;11.576;2023-02-22T07:53:15;6.90;36.60
26035;DHT22;13809;48.632;11.576;2023-02-22T07:58:21;6.90;37.40
26035;DHT22;13809;48.632;11.576;2023-02-22T08:03:25;7.00;37.20
26035;DHT22;13809;48.632;11.576;2023-02-22T08:08:30;7.10;37.30
26035;DHT22;13809;48.632;11.576;2023-02-22T08:13:33;7.20;37.80
26035;DHT22;13809;48.632;11.576;2023-02-22T08:18:37;7.40;37.80
26035;DHT22;13809;48.632;11.576;2023-02-22T08:23:43;7.60;37.90
26035;DHT22;13809;48.632;11.576;2023-02-22T08:28:47;7.80;38.50
26035;DHT22;13809;48.632;11.576;2023-02-22T08:33:50;8.00;38.50
26035;DHT22;13809;48.632;11.576;2023-02-22T08:38:55;8.20;38.40
26035;DHT22;13809;48.632;11.576;2023-02-22T08:43:58;8.40;39.10
26035;DHT22;13809;48.632;11.576;2023-02-22T08:49:03;8.60;38.70
26035;DHT22;13809;48.632;11.576;2023-02-22T08:54:09;8.80;39.00
26035;DHT22;13809;48.632;11.576;2023-02-22T08:59:12;9.00;39.70
26035;DHT22;13809;48.632;11.576;2023-02-22T09:04:15;9.30;39.40
26035;DHT22;13809;48.632;11.576;2023-02-22T09:09:20;9.50;39.50
26035;DHT22;13809;48.632;11.576;2023-02-22T09:14:23;9.70;39.70
26035;DHT22;13809;48.632;11.576;2023-02-22T09:19:26;9.90;39.30
26035;DHT22;13809;48.632;11.576;2023-02-22T09:24:30;10.10;38.20
26035;DHT22;13809;48.632;11.576;2023-02-22T09:29:34;10.30;38.90
26035;DHT22;13809;48.632;11.576;2023-02-22T09:34:37;10.50;38.70
26035;DHT22;13809;48.632;11.576;2023-02-22T09:39:48;10.70;38.60
26035;DHT22;13809;48.632;11.576;2023-02-22T09:44:55;11.00;39.20
26035;DHT22;13809;48.632;11.576;2023-02-22T09:50:02;11.20;39.40
26035;DHT22;13809;48.632;11.576;2023-02-22T09:55:19;11.50;39.40
26035;DHT22;13809;48.632;11.576;2023-02-22T10:00:31;11.80;40.20
26035;DHT22;13809;48.632;11.576;2023-02-22T10:05:38;12.00;39.00
26035;DHT22;13809;48.632;11.576;2023-02-22T10:10:45;12.30;39.00
26035;DHT22;13809;48.632;11.576;2023-02-22T10:15:55;12.50;39.00
26035;DHT22;13809;48.632;11.576;2023-02-22T10:21:08;12.80;38.80
26035;DHT22;13809;48.632;11.576;2023-02-22T10:26:22;13.10;39.10
26035;DHT22;13809;48.632;11.576;2023-02-22T10:31:30;13.30;39.20
26035;DHT22;13809;48.632;11.576;2023-02-22T10:36:34;13.60;39.10
26035;DHT22;13809;48.632;11.576;2023-02-22T10:41:46;13.90;38.90
26035;DHT22;13809;48.632;11.576;2023-02-22T10:46:51;14.20;38.90
26035;DHT22;13809;48.632;11.576;2023-02-22T10:51:59;14.50;38.60
26035;DHT22;13809;48.632;11.576;2023-02-22T10:57:04;14.70;38.30
26035;DHT22;13809;48.632;11.576;2023-02-22T11:02:17;14.90;38.10
26035;DHT22;13809;48.632;11.576;2023-02-22T11:07:24;15.20;38.10
26035;DHT22;13809;48.632;11.576;2023-02-22T11:12:31;15.40;37.10
26035;DHT22;13809;48.632;11.576;2023-02-22T11:17:34;15.60;36.80
26035;DHT22;13809;48.632;11.576;2023-02-22T11:22:39;15.90;37.00
26035;DHT22;13809;48.632;11.576;2023-02-22T11:27:45;16.10;36.50
26035;DHT22;13809;48.632;11.576;2023-02-22T11:32:51;16.30;36.30
26035;DHT22;13809;48.632;11.576;2023-02-22T11:38:09;16.60;36.40
26035;DHT22;13809;48.632;11.576;2023-02-22T11:43:16;16.80;35.70
26035;DHT22;13809;48.632;11.576;2023-02-22T11:48:19;17.00;35.60
26035;DHT22;13809;48.632;11.576;2023-02-22T11:53:29;17.20;35.50
26035;DHT22;13809;48.632;11.576;2023-02-22T11:58:42;17.30;34.10
26035;DHT22;13809;48.632;11.576;2023-02-22T12:04:03;17.40;34.20
26035;DHT22;13809;48.632;11.576;2023-02-22T12:09:13;17.50;33.60
26035;DHT22;13809;48.632;11.576;2023-02-22T12:14:26;17.50;33.80
26035;DHT22;13809;48.632;11.576;2023-02-22T12:19:35;17.50;33.30
26035;DHT22;13809;48.632;11.576;2023-02-22T12:24:42;17.50;34.30
26035;DHT22;13809;48.632;11.576;2023-02-22T12:29:51;17.60;33.90
26035;DHT22;13809;48.632;11.576;2023-02-22T12:35:02;17.70;33.40
26035;DHT22;13809;48.632;11.576;2023-02-22T12:40:12;17.80;33.30
26035;DHT22;13809;48.632;11.576;2023-02-22T12:45:25;17.80;32.90
26035;DHT22;13809;48.632;11.576;2023-02-22T12:50:31;17.80;32.90
26035;DHT22;13809;48.632;11.576;2023-02-22T12:55:39;17.90;33.30
26035;DHT22;13809;48.632;11.576;2023-02-22T13:00:50;17.90;32.60
26035;DHT22;13809;48.632;11.576;2023-02-22T13:06:05;17.90;32.40
26035;DHT22;13809;48.632;11.576;2023-02-22T13:11:15;17.90;32.60
26035;DHT22;13809;48.632;11.576;2023-02-22T13:16:34;18.00;32.70
26035;DHT22;13809;48.632;11.576;2023-02-22T13:21:46;18.10;32.50
26035;DHT22;13809;48.632;11.576;2023-02-22T13:26:53;18.10;32.40
26035;DHT22;13809;48.632;11.576;2023-02-22T13:32:20;18.20;32.80
26035;DHT22;13809;48.632;11.576;2023-02-22T13:43:18;18.30;32.20
26035;DHT22;13809;48.632;11.576;2023-02-22T13:54:03;18.40;31.90
26035;DHT22;13809;48.632;11.576;2023-02-22T13:59:22;18.50;32.30
26035;DHT22;13809;48.632;11.576;2023-02-22T14:04:36;18.60;31.70
26035;DHT22;13809;48.632;11.576;2023-02-22T14:09:44;18.60;31.60
26035;DHT22;13809;48.632;11.576;2023-02-22T14:15:12;18.60;31.60
26035;DHT22;13809;48.632;11.576;2023-02-22T14:20:35;18.60;31.20
26035;DHT22;13809;48.632;11.576;2023-02-22T14:25:41;18.60;31.60
26035;DHT22;13809;48.632;11.576;2023-02-22T14:30:44;18.60;31.90
26035;DHT22;13809;48.632;11.576;2023-02-22T14:35:49;18.60;32.10
26035;DHT22;13809;48.632;11.576;2023-02-22T14:40:55;18.60;31.90
26035;DHT22;13809;48.632;11.576;2023-02-22T14:46:00;18.70;31.50
26035;DHT22;13809;48.632;11.576;2023-02-22T14:51:15;18.70;31.50
26035;DHT22;13809;48.632;11.576;2023-02-22T14:56:27;18.80;30.50
26035;DHT22;13809;48.632;11.576;2023-02-22T15:01:32;18.80;30.80
26035;DHT22;13809;48.632;11.576;2023-02-22T15:07:00;18.80;30.90
26035;DHT22;13809;48.632;11.576;2023-02-22T15:12:12;18.80;30.20
26035;DHT22;13809;48.632;11.576;2023-02-22T15:17:19;18.80;30.50
26035;DHT22;13809;48.632;11.576;2023-02-22T15:22:26;18.80;30.40
26035;DHT22;13809;48.632;11.576;2023-02-22T15:27:31;18.80;30.20
26035;DHT22;13809;48.632;11.576;2023-02-22T15:32:39;18.80;30.80
26035;DHT22;13809;48.632;11.576;2023-02-22T15:38:01;18.80;31.60
26035;DHT22;13809;48.632;11.576;2023-02-22T15:43:06;18.80;31.80
26035;DHT22;13809;48.632;11.576;2023-02-22T15:48:10;18.70;31.90
26035;DHT22;13809;48.632;11.576;2023-02-22T15:53:25;18.60;32.00
26035;DHT22;13809;48.632;11.576;2023-02-22T15:58:30;18.50;32.20
26035;DHT22;13809;48.632;11.576;2023-02-22T16:03:36;18.40;32.20
26035;DHT22;13809;48.632;11.576;2023-02-22T16:08:49;18.30;32.50
26035;DHT22;13809;48.632;11.576;2023-02-22T16:13:59;18.20;32.70
26035;DHT22;13809;48.632;11.576;2023-02-22T16:19:25;18.10;32.80
26035;DHT22;13809;48.632;11.576;2023-02-22T16:24:31;18.00;33.00
26035;DHT22;13809;48.632;11.576;2023-02-22T16:29:35;17.90;33.10
26035;DHT22;13809;48.632;11.576;2023-02-22T16:34:39;17.80;32.90
26035;DHT22;13809;48.632;11.576;2023-02-22T16:39:44;17.70;32.90
26035;DHT22;13809;48.632;11.576;2023-02-22T16:44:47;17.60;33.20
26035;DHT22;13809;48.632;11.576;2023-02-22T16:49:51;17.50;33.00
26035;DHT22;13809;48.632;11.576;2023-02-22T16:54:55;17.50;33.10
26035;DHT22;13809;48.632;11.576;2023-02-22T16:59:59;17.30;33.20
26035;DHT22;13809;48.632;11.576;2023-02-22T17:05:02;17.30;33.30
26035;DHT22;13809;48.632;11.576;2023-02-22T17:10:07;17.20;33.30
26035;DHT22;13809;48.632;11.576;2023-02-22T17:15:16;17.10;33.70
26035;DHT22;13809;48.632;11.576;2023-02-22T17:20:22;16.90;33.80
26035;DHT22;13809;48.632;11.576;2023-02-22T17:25:34;16.90;33.80
26035;DHT22;13809;48.632;11.576;2023-02-22T17:30:38;16.70;33.60
26035;DHT22;13809;48.632;11.576;2023-02-22T17:35:42;16.60;33.50
26035;DHT22;13809;48.632;11.576;2023-02-22T17:40:49;16.60;33.50
26035;DHT22;13809;48.632;11.576;2023-02-22T17:45:53;16.50;33.40
26035;DHT22;13809;48.632;11.576;2023-02-22T17:50:56;16.40;33.30
26035;DHT22;13809;48.632;11.576;2023-02-22T17:56:05;16.40;33.30
26035;DHT22;13809;48.632;11.576;2023-02-22T18:01:18;16.30;34.00
26035;DHT22;13809;48.632;11.576;2023-02-22T18:06:24;16.20;33.90
26035;DHT22;13809;48.632;11.576;2023-02-22T18:11:30;16.10;33.50
26035;DHT22;13809;48.632;11.576;2023-02-22T18:16:33;16.00;33.60
26035;DHT22;13809;48.632;11.576;2023-02-22T18:21:39;16.00;33.40
26035;DHT22;13809;48.632;11.576;2023-02-22T18:26:44;15.80;33.50
26035;DHT22;13809;48.632;11.576;2023-02-22T18:31:48;15.70;33.80
26035;DHT22;13809;48.632;11.576;2023-02-22T18:36:53;15.70;33.70
26035;DHT22;13809;48.632;11.576;2023-02-22T18:41:58;15.60;33.80
26035;DHT22;13809;48.632;11.576;2023-02-22T18:47:01;15.50;33.80
26035;DHT22;13809;48.632;11.576;2023-02-22T18:52:04;15.40;33.70
26035;DHT22;13809;48.632;11.576;2023-02-22T18:57:09;15.40;33.70
26035;DHT22;13809;48.632;11.576;2023-02-22T19:02:14;15.30;33.90
26035;DHT22;13809;48.632;11.576;2023-02-22T19:07:20;15.10;33.80
26035;DHT22;13809;48.632;11.576;2023-02-22T19:12:28;14.90;33.90
26035;DHT22;13809;48.632;11.576;2023-02-22T19:17:33;14.80;34.10
26035;DHT22;13809;48.632;11.576;2023-02-22T19:22:38;14.60;34.10
26035;DHT22;13809;48.632;11.576;2023-02-22T19:27:42;14.50;34.00
26035;DHT22;13809;48.632;11.576;2023-02-22T19:32:45;14.40;34.30
26035;DHT22;13809;48.632;11.576;2023-02-22T19:37:49;14.20;34.20
26035;DHT22;13809;48.632;11.576;2023-02-22T19:42:56;14.20;34.30
26035;DHT22;13809;48.632;11.576;2023-02-22T19:47:59;14.00;34.50
26035;DHT22;13809;48.632;11.576;2023-02-22T19:53:02;13.90;34.20
26035;DHT22;13809;48.632;11.576;2023-02-22T19:58:07;13.80;34.30
26035;DHT22;13809;48.632;11.576;2023-02-22T20:03:10;13.70;34.60
26035;DHT22;13809;48.632;11.576;2023-02-22T20:08:16;13.60;34.30
26035;DHT22;13809;48.632;11.576;2023-02-22T20:13:20;13.60;34.30
26035;DHT22;13809;48.632;11.576;2023-02-22T20:18:23;13.60;34.60
26035;DHT22;13809;48.632;11.576;2023-02-22T20:23:26;13.60;34.50
26035;DHT22;13809;48.632;11.576;2023-02-22T20:28:31;13.50;34.40
26035;DHT22;13809;48.632;11.576;2023-02-22T20:33:34;13.50;34.50
26035;DHT22;13809;48.632;11.576;2023-02-22T20:38:38;13.40;34.30
26035;DHT22;13809;48.632;11.576;2023-02-22T20:43:43;13.40;34.50
26035;DHT22;13809;48.632;11.576;2023-02-22T20:48:47;13.30;34.60
26035;DHT22;13809;48.632;11.576;2023-02-22T20:53:50;13.30;34.40
26035;DHT22;13809;48.632;11.576;2023-02-22T20:58:56;13.20;35.00
26035;DHT22;13809;48.632;11.576;2023-02-22T21:04:00;13.10;34.70
26035;DHT22;13809;48.632;11.576;2023-02-22T21:09:05;13.00;34.30
26035;DHT22;13809;48.632;11.576;2023-02-22T21:14:11;13.00;34.40
26035;DHT22;13809;48.632;11.576;2023-02-22T21:19:19;12.90;34.50
26035;DHT22;13809;48.632;11.576;2023-02-22T21:24:27;12.80;34.30
26035;DHT22;13809;48.632;11.576;2023-02-22T21:29:32;12.80;34.50
26035;DHT22;13809;48.632;11.576;2023-02-22T21:34:36;12.70;34.60
26035;DHT22;13809;48.632;11.576;2023-02-22T21:39:40;12.60;34.30
26035;DHT22;13809;48.632;11.576;2023-02-22T21:44:49;12.40;34.30
26035;DHT22;13809;48.632;11.576;2023-02-22T21:49:56;12.10;34.90
26035;DHT22;13809;48.632;11.576;2023-02-22T21:54:59;11.90;34.90
26035;DHT22;13809;48.632;11.576;2023-02-22T22:00:05;11.80;35.30
26035;DHT22;13809;48.632;11.576;2023-02-22T22:05:17;11.80;35.70
26035;DHT22;13809;48.632;11.576;2023-02-22T22:10:32;11.80;35.50
26035;DHT22;13809;48.632;11.576;2023-02-22T22:15:37;11.80;35.50
26035;DHT22;13809;48.632;11.576;2023-02-22T22:20:40;11.70;35.80
26035;DHT22;13809;48.632;11.576;2023-02-22T22:25:45;11.70;35.70
26035;DHT22;13809;48.632;11.576;2023-02-22T22:30:53;11.70;35.80
26035;DHT22;13809;48.632;11.576;2023-02-22T22:35:56;11.60;36.10
26035;DHT22;13809;48.632;11.576;2023-02-22T22:40:59;11.60;35.80
26035;DHT22;13809;48.632;11.576;2023-02-22T22:46:05;11.60;36.00
26035;DHT22;13809;48.632;11.576;2023-02-22T22:51:10;11.60;36.30
26035;DHT22;13809;48.632;11.576;2023-02-22T22:56:15;11.60;36.30
26035;DHT22;13809;48.632;11.576;2023-02-22T23:01:23;11.60;36.30
26035;DHT22;13809;48.632;11.576;2023-02-22T23:06:29;11.60;36.70
26035;DHT22;13809;48.632;11.576;2023-02-22T23:11:33;11.50;36.20
26035;DHT22;13809;48.632;11.576;2023-02-22T23:16:38;11.40;35.90
26035;DHT22;13809;48.632;11.576;2023-02-22T23:21:42;11.40;36.30
26035;DHT22;13809;48.632;11.576;2023-02-22T23:26:46;11.20;36.10
26035;DHT22;13809;48.632;11.576;2023-02-22T23:31:51;11.10;36.40
26035;DHT22;13809;48.632;11.576;2023-02-22T23:36:55;11.00;36.70
26035;DHT22;13809;48.632;11.576;2023-02-22T23:41:58;10.90;36.50
26035;DHT22;13809;48.632;11.576;2023-02-22T23:47:02;10.80;36.60
26035;DHT22;13809;48.632;11.576;2023-02-22T23:52:07;10.70;36.90
26035;DHT22;13809;48.632;11.576;2023-02-22T23:57:10;10.70;36.90
